Portada
METAR-TAF:

METAR-TAF

Aeroports :

Hohhot, Xina

latitud: 40-49N, longitud: 111-41E, altitud: 1065 m

Observació

L'informe es va fer fa 23 minuts, a les 04:00 UTC
Vent 4 kt del Sud-Est, variant entre Est/Nord-Est i Sud/Sud-Oest
Temperatura 11°C
Humitat 28%
Pressió 1030 hPa
Visibilitat 10 km o més
sense núvols per sota de 1500 mi sense presència de cumulonimbus.

METAR: ZBHH 150400Z 14002MPS 070V210 CAVOK 11/M07 Q1030 NOSIG

Hora: 12:23 (04:23 UTC)

Pronòstic

L'informe es va fer fa 9 hores i 21 minuts, a les 19:02 UTC
Pronòstic vàlid del 15 a les 00 UTC al 15 a les 24 UTC
Vent 8 kt del Est/Nord-Est
Visibilitat 10 km o més
sense núvols per sota de 1500 mi sense presència de cumulonimbus.

TAF: ZBHH 141902Z 1500/1524 06004MPS CAVOK TX13/1507Z TN00/1522Z

Observacions i pronòstics meteorològics de més de 4000 aeroports (METAR i TAF).

Les estacions disponibles són els punts grocs i vermells al mapa.

Posi el ratolí al punt desitjat per veure el nom de l'estació.

Feu clic per veure les observacions i els pronòstics meteorològics.

Per canviar el mapa: feu clic els botons verds amb una creu de color negre per apropar; al botó verd amb un guió per allunyar la imatge; o en les fletxes verdes per a mapes adjacents.


METAR-TAF: